Data for 08/09/2014

Time Sea-Level Adjusted Pressure Absolute Pressure Temperature Relative Humidity Dew Point   
(mb) (inHg) (mb) (inHg) (C) (F) (%) (C) (F)
00:05 1021 30.15 851 25.13 13.9 57 67 8 46.3
00:10 1021 30.15 851 25.13 14.1 57.3 69 8.4 47.1
00:15 1021 30.15 851 25.13 13.9 57 70 8.6 47.5
00:20 1021 30.15 850 25.1 13.6 56.5 72 8.7 47.6
00:25 1021 30.15 850 25.1 13.5 56.4 72 8.6 47.4
00:30 1021 30.15 850 25.1 13.6 56.5 72 8.6 47.5
00:35 1021 30.15 850 25.1 13.6 56.5 72 8.7 47.7
00:40 1021 30.15 851 25.13 13.5 56.3 72 8.7 47.6
00:45 1021 30.15 851 25.13 13.4 56.2 73 8.6 47.6
00:50 1021 30.15 851 25.13 13.4 56.1 73 8.6 47.5
00:55 1021 30.15 851 25.13 13.5 56.2 72 8.6 47.5
01:00 1021 30.15 851 25.13 13.5 56.3 72 8.7 47.6
01:05 1022 30.18 851 25.13 13.5 56.2 73 8.7 47.7
01:10 1022 30.18 851 25.13 13.4 56.1 72 8.6 47.5
01:15 1022 30.18 851 25.13 13.5 56.2 73 8.8 47.8
01:20 1022 30.18 851 25.13 13.4 56 74 8.8 47.8
01:25 1022 30.18 851 25.13 13.2 55.7 74 8.6 47.5
01:30 1022 30.18 851 25.13 13.1 55.7 73 8.4 47.2
01:35 1022 30.18 851 25.13 13.2 55.7 71 8 46.4
01:40 1022 30.18 851 25.13 12.9 55.3 70 7.7 45.9
01:45 1022 30.18 851 25.13 12.8 55.1 71 7.7 45.9
01:50 1022 30.18 851 25.13 12.7 54.8 72 7.8 46.1
01:55 1022 30.18 851 25.13 12.3 54.1 75 7.9 46.3
02:00 1022 30.18 851 25.13 11.9 53.5 76 7.9 46.2
02:05 1022 30.18 851 25.13 11.8 53.2 76 7.6 45.7
02:10 1022 30.18 851 25.13 11.6 52.9 77 7.7 45.8
02:15 1022 30.18 851 25.13 11.5 52.6 77 7.7 45.8
02:20 1022 30.18 851 25.13 11.5 52.6 77 7.5 45.5
02:25 1022 30.18 851 25.13 11.6 52.8 76 7.4 45.4
02:30 1022 30.18 851 25.13 11.7 53.1 76 7.6 45.7
02:35 1022 30.18 851 25.13 11.5 52.7 78 7.8 46.1
02:40 1022 30.18 851 25.13 11.3 52.3 79 7.7 45.9
02:45 1022 30.18 851 25.13 11.3 52.3 78 7.7 45.8
02:50 1022 30.18 851 25.13 11.3 52.3 79 7.7 45.8
02:55 1022 30.18 851 25.13 11.3 52.3 78 7.7 45.8
03:00 1022 30.18 851 25.13 11.2 52.2 78 7.6 45.7
03:05 1022 30.18 851 25.13 11.3 52.4 77 7.6 45.6
03:10 1022 30.18 851 25.13 11.7 53 77 7.8 46.1
03:15 1022 30.18 851 25.13 12 53.6 76 7.8 46.1
03:20 1022 30.18 851 25.13 12 53.6 75 7.7 45.9
03:25 1022 30.18 851 25.13 12 53.6 74 7.6 45.7
03:30 1022 30.18 851 25.13 12 53.5 75 7.7 45.8
03:35 1022 30.18 851 25.13 12 53.7 73 7.4 45.3
03:40 1022 30.18 851 25.13 12.3 54.1 73 7.6 45.6
03:45 1022 30.18 851 25.13 12.3 54.2 72 7.4 45.3
03:50 1022 30.18 851 25.13 12.2 54 73 7.5 45.5
03:55 1022 30.18 851 25.13 11.9 53.4 73 7.3 45.2
04:00 1022 30.18 851 25.13 11.8 53.2 74 7.3 45.1
04:05 1022 30.18 851 25.13 11.7 53 74 7.2 44.9
04:10 1022 30.18 851 25.13 11.7 53.1 74 7.2 45
04:15 1022 30.18 851 25.13 11.3 52.3 76 7.3 45.1
04:20 1022 30.18 852 25.16 10.9 51.6 77 7 44.7
04:25 1022 30.18 852 25.16 11.3 52.3 77 7.4 45.3
04:30 1022 30.18 852 25.16 11.4 52.5 79 7.9 46.2
04:35 1022 30.18 852 25.16 11.2 52.2 80 8 46.4
04:40 1023 30.21 852 25.16 10.9 51.6 82 7.9 46.2
04:45 1023 30.21 852 25.16 11 51.8 80 7.7 45.9
04:50 1023 30.21 852 25.16 11.2 52.1 79 7.6 45.7
04:55 1023 30.21 852 25.16 11.3 52.3 78 7.5 45.6
05:00 1023 30.21 852 25.16 11.1 52 79 7.6 45.6
05:05 1023 30.21 852 25.16 11.1 51.9 79 7.5 45.5
05:10 1023 30.21 852 25.16 11.1 51.9 77 7.3 45.1
05:15 1023 30.21 852 25.16 11.2 52.1 77 7.4 45.3
05:20 1023 30.21 852 25.16 11.2 52.2 77 7.4 45.4
05:25 1023 30.21 852 25.16 11.3 52.3 78 7.5 45.5
05:30 1023 30.21 852 25.16 11.3 52.4 77 7.5 45.4
05:35 1023 30.21 852 25.16 11.3 52.4 77 7.5 45.5
05:40 1023 30.21 852 25.16 11.2 52.1 76 7.2 45
05:45 1023 30.21 852 25.16 11 51.8 77 7.2 45
05:50 1023 30.21 852 25.16 10.9 51.6 77 7 44.6
05:55 1023 30.21 853 25.19 11 51.8 77 7.2 44.9
06:00 1023 30.21 853 25.19 11.3 52.3 76 7.3 45.2
06:05 1023 30.21 853 25.19 11.5 52.8 76 7.5 45.5
06:10 1023 30.21 853 25.19 11.7 53.1 74 7.3 45.2
06:15 1024 30.24 853 25.19 12 53.5 73 7.3 45.1
06:20 1024 30.24 853 25.19 12.3 54.1 71 7.2 44.9
06:25 1024 30.24 853 25.19 12.7 54.8 69 7.2 45
06:30 1024 30.24 853 25.19 13 55.4 69 7.4 45.3
06:35 1024 30.24 853 25.19 12.9 55.2 70 7.6 45.6
06:40 1024 30.24 853 25.19 12.9 55.1 70 7.6 45.7
06:45 1024 30.24 853 25.19 13 55.4 71 7.8 46.1
06:50 1024 30.24 853 25.19 13.1 55.6 71 8 46.3
06:55 1024 30.24 853 25.19 13.4 56.1 70 8 46.5
07:00 1024 30.24 853 25.19 13.5 56.3 71 8.3 47
07:05 1024 30.24 853 25.19 13.7 56.7 69 8.2 46.7
07:10 1024 30.24 853 25.19 14.3 57.7 68 8.4 47.1
07:15 1024 30.24 853 25.19 14.6 58.3 65 8.2 46.8
07:20 1024 30.24 853 25.19 14.8 58.6 66 8.5 47.3
07:25 1024 30.24 854 25.22 15.6 60 63 8.5 47.4
07:30 1024 30.24 854 25.22 15.9 60.6 62 8.7 47.7
07:35 1025 30.27 854 25.22 16.3 61.3 61 8.7 47.7
07:40 1025 30.27 854 25.22 16.4 61.6 61 8.9 48.1
07:45 1025 30.27 854 25.22 16.4 61.6 60 8.8 47.8
07:50 1025 30.27 854 25.22 17.2 62.9 59 9.3 48.7
07:55 1025 30.27 854 25.22 17.3 63.2 58 9.1 48.4
08:00 1025 30.27 854 25.22 18.2 64.7 52 8.4 47.1
08:05 1025 30.27 854 25.22 18.3 64.9 54 9 48.2
08:10 1025 30.27 854 25.22 18.5 65.4 51 8.2 46.7
08:15 1025 30.27 854 25.22 18.5 65.3 51 8.3 47
08:20 1025 30.27 854 25.22 18.3 65 54 8.9 47.9
08:25 1025 30.27 854 25.22 18 64.3 55 8.9 48
08:30 1025 30.27 854 25.22 18.1 64.6 53 8.4 47.1
08:35 1025 30.27 854 25.22 18.7 65.7 51 8.4 47.1
08:40 1025 30.27 854 25.22 19.6 67.3 49 8.9 48
08:45 1025 30.27 854 25.22 19.3 66.7 51 9 48.1
08:50 1025 30.27 854 25.22 19.6 67.2 49 8.6 47.6
08:55 1025 30.27 854 25.22 19.7 67.5 48 8.5 47.3
09:00 1025 30.27 854 25.22 19 66.2 51 8.8 47.8
09:05 1025 30.27 854 25.22 19 66.2 49 8.1 46.5
09:10 1025 30.27 854 25.22 19.5 67.2 50 9 48.2
09:15 1025 30.27 854 25.22 19.2 66.6 48 8.2 46.7
09:20 1025 30.27 854 25.22 20.3 68.5 45 8.1 46.7
09:25 1025 30.27 854 25.22 20.9 69.6 43 8.1 46.6
09:30 1025 30.27 854 25.22 20.6 69 45 8.3 47
09:35 1025 30.27 854 25.22 19.8 67.6 48 8.6 47.5
09:40 1025 30.27 854 25.22 20.5 68.9 44 7.9 46.3
09:45 1025 30.27 854 25.22 21.2 70.1 43 8.2 46.8
09:50 1025 30.27 854 25.22 21.6 70.8 43 8.5 47.3
09:55 1025 30.27 854 25.22 21.9 71.5 40 8.1 46.5
10:00 1025 30.27 854 25.22 21.2 70.2 43 8.2 46.7
10:05 1025 30.27 854 25.22 21.5 70.7 40 7.5 45.6
10:10 1025 30.27 854 25.22 22.1 71.8 41 8.3 46.9
10:15 1025 30.27 854 25.22 21.3 70.3 42 8 46.5
10:20 1025 30.27 854 25.22 21.9 71.4 40 7.8 46
10:25 1025 30.27 854 25.22 22.5 72.5 39 8.2 46.7
10:30 1025 30.27 854 25.22 21.9 71.4 40 7.7 45.8
10:35 1025 30.27 854 25.22 22.7 72.9 37 7.6 45.7
10:40 1025 30.27 854 25.22 22.5 72.4 37 7.4 45.3
10:45 1025 30.27 854 25.22 22.8 73.1 38 7.8 46
10:50 1025 30.27 854 25.22 23.1 73.5 37 7.7 45.8
10:55 1025 30.27 854 25.22 22.8 73.1 36 7 44.7
11:00 1025 30.27 854 25.22 23.5 74.2 36 7.6 45.7
11:05 1025 30.27 854 25.22 23.1 73.6 36 7.6 45.7
11:10 1025 30.27 854 25.22 23 73.3 34 6.7 44
11:15 1025 30.27 854 25.22 23.8 74.8 32 6.4 43.5
11:20 1025 30.27 854 25.22 24.2 75.6 32 6.8 44.2
11:25 1024 30.24 854 25.22 23.8 74.8 32 6.2 43.1
11:30 1024 30.24 854 25.22 24.5 76.2 30 6.2 43.1
11:35 1024 30.24 854 25.22 24.4 75.8 31 6.4 43.6
11:40 1024 30.24 854 25.22 24.8 76.6 30 6.1 43
11:45 1024 30.24 854 25.22 24.9 76.8 27 5.1 41.2
11:50 1024 30.24 854 25.22 25.1 77.2 27 4.9 40.9
11:55 1024 30.24 854 25.22 24.9 76.9 28 5.4 41.8
12:00 1024 30.24 854 25.22 25.2 77.4 26 4.6 40.3
12:05 1024 30.24 854 25.22 26.2 79.1 24 4.5 40.1
12:10 1024 30.24 854 25.22 25.9 78.6 25 4.9 40.8
12:15 1024 30.24 853 25.19 25.5 78 25 4.2 39.6
12:20 1024 30.24 853 25.19 26 78.8 26 5.1 41.2
12:25 1024 30.24 853 25.19 25.5 77.8 27 5.2 41.3
12:30 1024 30.24 853 25.19 24.5 76.1 27 4.4 40
12:35 1024 30.24 853 25.19 25.3 77.5 26 4.4 39.9
12:40 1024 30.24 853 25.19 25 77.1 25 3.7 38.7
12:45 1024 30.24 853 25.19 25.5 77.8 26 4.7 40.5
12:50 1024 30.24 853 25.19 24.7 76.4 26 4.1 39.4
12:55 1024 30.24 853 25.19 24.8 76.6 25 3.7 38.6
13:00 1024 30.24 853 25.19 26.1 78.9 23 3.9 39
13:05 1024 30.24 853 25.19 26.8 80.3 22 3.9 38.9
13:10 1024 30.24 853 25.19 27.1 80.8 21 3.1 37.6
13:15 1024 30.24 853 25.19 27.3 81.1 19 1.7 35.1
13:20 1024 30.24 853 25.19 27.2 80.9 19 2.2 35.9
13:25 1024 30.24 853 25.19 27.2 81 19 2 35.7
13:30 1024 30.24 853 25.19 27.8 82.1 20 3 37.4
13:35 1024 30.24 853 25.19 27.6 81.7 20 2.7 36.9
13:40 1024 30.24 853 25.19 27.5 81.6 17 0.9 33.6
13:45 1024 30.24 853 25.19 27.7 81.9 17 1 33.8
13:50 1024 30.24 853 25.19 27.3 81.2 19 2.2 36
13:55 1024 30.24 853 25.19 27.5 81.4 17 0.6 33
14:00 1024 30.24 853 25.19 27.8 82 18 1.6 35
14:05 1024 30.24 853 25.19 27.5 81.5 21 3.4 38.2
14:10 1024 30.24 853 25.19 26.1 79 22 2.8 37.1
14:15 1024 30.24 853 25.19 26.4 79.5 19 1.5 34.7
14:20 1024 30.24 853 25.19 26.3 79.4 18 0.7 33.3
14:25 1024 30.24 853 25.19 27 80.6 17 0.3 32.5
14:30 1024 30.24 853 25.19 26.9 80.5 18 0.7 33.2
14:35 1024 30.24 853 25.19 27.1 80.8 17 0.3 32.6
14:40 1024 30.24 853 25.19 27.7 81.8 16 -0.5 31.2
14:45 1024 30.24 853 25.19 27.5 81.6 17 0.6 33.1
14:50 1024 30.24 853 25.19 27.4 81.4 17 0.2 32.3
14:55 1024 30.24 853 25.19 27.6 81.7 16 -0 32
15:00 1024 30.24 853 25.19 27.6 81.6 15 -0.9 30.4
15:05 1024 30.24 853 25.19 27.3 81.2 15 -1.3 29.7
15:10 1024 30.24 853 25.19 27.6 81.7 15 -0.8 30.5
15:15 1024 30.24 853 25.19 27.7 81.9 15 -1.1 30.1
15:20 1023 30.21 853 25.19 27.6 81.7 15 -0.7 30.7
15:25 1023 30.21 853 25.19 27.9 82.1 15 -0.7 30.7
15:30 1023 30.21 853 25.19 27.8 82 15 -1.1 29.9
15:35 1023 30.21 853 25.19 27.3 81.1 15 -1.6 29.2
15:40 1023 30.21 853 25.19 26.3 79.3 15 -1.8 28.8
15:45 1023 30.21 852 25.16 26.7 80 15 -1.5 29.2
15:50 1023 30.21 852 25.16 27.2 80.9 15 -1.3 29.6
15:55 1023 30.21 852 25.16 27 80.6 15 -1.2 29.8
16:00 1023 30.21 852 25.16 27.4 81.3 15 -1.6 29.1
16:05 1023 30.21 852 25.16 27.2 80.9 15 -1.4 29.5
16:10 1023 30.21 852 25.16 27.3 81.2 15 -1.3 29.6
16:15 1023 30.21 852 25.16 27.6 81.7 15 -1.4 29.5
16:20 1023 30.21 852 25.16 27.9 82.1 15 -0.9 30.4
16:25 1023 30.21 852 25.16 27.5 81.5 16 -0.5 31
16:30 1023 30.21 852 25.16 27.4 81.2 15 -0.9 30.4
16:35 1023 30.21 852 25.16 27.3 81.2 17 0.4 32.7
16:40 1023 30.21 852 25.16 27 80.6 16 -0.8 30.6
16:45 1023 30.21 852 25.16 27 80.5 15 -1.3 29.6
16:50 1023 30.21 852 25.16 26.5 79.8 18 0.3 32.6
16:55 1023 30.21 852 25.16 26.2 79.2 18 0 32.1
17:00 1023 30.21 852 25.16 26.6 79.8 17 0.1 32.2
17:05 1023 30.21 852 25.16 27.3 81.1 16 -0.8 30.6
17:10 1023 30.21 852 25.16 26.7 80 18 0.8 33.4
17:15 1023 30.21 852 25.16 26.2 79.1 19 1 33.8
17:20 1023 30.21 852 25.16 26.6 79.9 19 1.4 34.4
17:25 1023 30.21 852 25.16 26.4 79.5 19 0.8 33.5
17:30 1023 30.21 852 25.16 26.3 79.3 19 0.9 33.7
17:35 1023 30.21 852 25.16 26.7 80.1 18 0.5 32.9
17:40 1023 30.21 852 25.16 26.9 80.4 19 1.3 34.4
17:45 1023 30.21 852 25.16 26.1 78.9 19 0.9 33.6
17:50 1023 30.21 852 25.16 26.2 79.1 18 0.6 33
17:55 1023 30.21 852 25.16 26.1 79 18 0.4 32.6
18:00 1023 30.21 852 25.16 25.6 78.1 21 2 35.7
18:05 1023 30.21 852 25.16 25.7 78.3 20 1 33.9
18:10 1023 30.21 852 25.16 25.7 78.3 20 1.3 34.4
18:15 1023 30.21 852 25.16 25.4 77.7 20 1.3 34.3
18:20 1023 30.21 852 25.16 25.2 77.4 20 1.2 34.2
18:25 1023 30.21 852 25.16 25.2 77.3 20 0.7 33.3
18:30 1023 30.21 852 25.16 25.1 77.2 20 1.2 34.1
18:35 1023 30.21 852 25.16 25.1 77.3 21 1.3 34.3
18:40 1023 30.21 852 25.16 25.1 77.1 21 1.1 34.1
18:45 1023 30.21 852 25.16 25 76.9 21 1.2 34.2
18:50 1023 30.21 852 25.16 24.9 76.7 20 0.6 33.1
18:55 1023 30.21 852 25.16 24.8 76.6 20 0.7 33.3
19:00 1023 30.21 852 25.16 24.7 76.4 21 1.3 34.3
19:05 1023 30.21 852 25.16 24.5 76.2 21 0.8 33.4
19:10 1023 30.21 852 25.16 24.7 76.4 20 0.7 33.2
19:15 1023 30.21 852 25.16 24.7 76.5 20 0.6 33
19:20 1023 30.21 852 25.16 24.7 76.4 20 0.2 32.4
19:25 1023 30.21 852 25.16 24.6 76.3 20 0.6 33.1
19:30 1023 30.21 852 25.16 24.4 76 24 2.5 36.5
19:35 1023 30.21 852 25.16 23.6 74.5 28 4 39.3
19:40 1023 30.21 853 25.19 22.7 72.9 29 3.8 38.8
19:45 1023 30.21 853 25.19 22.2 71.9 29 3.6 38.5
19:50 1023 30.21 853 25.19 22.1 71.7 29 3.4 38.1
19:55 1023 30.21 853 25.19 21.8 71.2 30 3.6 38.4
20:00 1023 30.21 853 25.19 21.4 70.5 30 3.4 38.1
20:05 1023 30.21 853 25.19 21.2 70.2 30 3.3 38
20:10 1024 30.24 853 25.19 20.9 69.6 32 3.6 38.5
20:15 1024 30.24 853 25.19 20.5 68.9 32 3.4 38.1
20:20 1024 30.24 853 25.19 20.6 69.1 31 3 37.3
20:25 1024 30.24 853 25.19 20.9 69.5 30 3 37.5
20:30 1024 30.24 853 25.19 20.8 69.4 31 3.1 37.6
20:35 1024 30.24 853 25.19 20.5 68.9 31 3.1 37.6
20:40 1024 30.24 853 25.19 20.4 68.8 31 2.8 37
20:45 1024 30.24 853 25.19 20.8 69.4 30 2.6 36.7
20:50 1024 30.24 853 25.19 20.9 69.7 31 3.1 37.6
20:55 1024 30.24 853 25.19 20.4 68.7 32 3.3 38
21:00 1024 30.24 853 25.19 20.2 68.3 32 3.3 38
21:05 1024 30.24 853 25.19 20.4 68.8 32 3.5 38.3
21:10 1024 30.24 853 25.19 20.7 69.3 33 4.2 39.5
21:15 1024 30.24 853 25.19 20.6 69 35 4.7 40.5
21:20 1024 30.24 853 25.19 20.4 68.8 36 5.2 41.3
21:25 1024 30.24 853 25.19 20.4 68.7 38 5.6 42
21:30 1024 30.24 853 25.19 20.3 68.6 39 6 42.7
21:35 1024 30.24 853 25.19 20.3 68.6 40 6.3 43.3
21:40 1024 30.24 853 25.19 20.4 68.6 40 6.6 43.9
21:45 1024 30.24 853 25.19 20.4 68.7 41 6.7 44
21:50 1024 30.24 853 25.19 20.4 68.6 41 6.8 44.3
21:55 1024 30.24 853 25.19 20.4 68.7 41 7 44.6
22:00 1024 30.24 853 25.19 20.4 68.6 42 7 44.7
22:05 1024 30.24 853 25.19 20.3 68.6 42 7.2 44.9
22:10 1024 30.24 853 25.19 20.2 68.4 43 7.3 45.1
22:15 1024 30.24 853 25.19 20.2 68.3 43 7.3 45.1
22:20 1024 30.24 853 25.19 20 68.1 43 7.4 45.3
22:25 1024 30.24 853 25.19 20 68 44 7.4 45.4
22:30 1024 30.24 853 25.19 19.9 67.8 44 7.5 45.5
22:35 1024 30.24 853 25.19 19.8 67.7 44 7.5 45.5
22:40 1024 30.24 853 25.19 19.7 67.5 45 7.6 45.6
22:45 1024 30.24 853 25.19 19.7 67.5 45 7.6 45.6
22:50 1024 30.24 853 25.19 19.6 67.3 45 7.6 45.8
22:55 1024 30.24 853 25.19 19.6 67.2 45 7.6 45.7
23:00 1024 30.24 853 25.19 19.6 67.3 45 7.6 45.7
23:05 1024 30.24 853 25.19 19.5 67.1 45 7.6 45.6
23:10 1024 30.24 853 25.19 19.5 67.1 46 7.6 45.7
23:15 1024 30.24 853 25.19 19.4 67 46 7.7 45.9
23:20 1024 30.24 853 25.19 19.2 66.6 47 7.7 45.8
23:25 1024 30.24 853 25.19 19.2 66.5 47 7.7 45.8
23:30 1024 30.24 853 25.19 19.2 66.5 46 7.5 45.6
23:35 1024 30.24 853 25.19 19.2 66.5 47 7.6 45.7
23:40 1024 30.24 853 25.19 19 66.2 47 7.6 45.7
23:45 1024 30.24 853 25.19 18.9 66.1 47 7.6 45.7
23:50 1024 30.24 853 25.19 18.9 66 47 7.5 45.6
23:55 1024 30.24 854 25.22 18.8 65.9 48 7.6 45.6
24:00 1024 30.24 854 25.22 18.8 65.8 48 7.7 45.8